Terminal Aerodrome Forecast
Issued by NWS

Home | Current Version | Previous Version | Text Only | Print | Product List | Glossary On
Versions: 1 2 3 4 5 6 7 8 9 10 11 12 13 14 15 16 17 18 19 20 21 22 23 24 25 26 27 28 29
000
FTUS45 KSLC 301120
TAFLGU
TAF
KLGU 301120Z 3012/3112 29008KT P6SM VCSH BKN090 OVC100
     FM301300 01005KT P6SM SCT090 BKN140
     FM301700 35006KT P6SM SCT100 BKN140
     FM310300 13004KT P6SM SCT140=

USA.gov is the U.S. government's official web portal to all federal, state and local government web resources and services.